createdAt,value
2022-11-26T00:00:29.526Z,102262.00
2022-11-26T00:02:56.385Z,102263.75
2022-11-26T00:05:23.507Z,102266.44
2022-11-26T00:07:56.198Z,102270.00
2022-11-26T00:10:25.739Z,102276.13
2022-11-26T00:12:52.910Z,102275.25
2022-11-26T00:15:25.271Z,102272.63
2022-11-26T00:17:53.174Z,102278.75
2022-11-26T00:20:27.943Z,102275.25
2022-11-26T00:22:56.917Z,102275.25
2022-11-26T00:25:27.297Z,102282.22
2022-11-26T00:27:55.905Z,102285.72
2022-11-26T00:30:25.385Z,102288.34
2022-11-26T00:32:53.523Z,102290.03
2022-11-26T00:35:21.167Z,102287.47
2022-11-26T00:37:51.220Z,102293.59
2022-11-26T00:40:22.501Z,102296.22
2022-11-26T00:42:50.214Z,102297.13
2022-11-26T00:45:24.913Z,102290.09
2022-11-26T00:47:52.090Z,102285.75
2022-11-26T00:50:24.339Z,102290.97
2022-11-26T00:52:54.375Z,102298.84
2022-11-26T00:55:37.180Z,102296.22
2022-11-26T00:58:05.250Z,102298.84
2022-11-26T01:00:34.578Z,102299.75
2022-11-26T01:03:01.958Z,102298.84
2022-11-26T01:05:30.727Z,102305.91
2022-11-26T01:08:06.534Z,102306.75
2022-11-26T01:10:33.098Z,102301.44
2022-11-26T01:12:59.648Z,102300.56
2022-11-26T01:15:27.030Z,102299.75
2022-11-26T01:17:53.895Z,102303.25
2022-11-26T01:20:30.944Z,102298.03
2022-11-26T01:22:59.004Z,102308.56
2022-11-26T01:25:27.068Z,102291.91
2022-11-26T01:27:54.272Z,102305.97
2022-11-26T01:30:29.577Z,102304.19
2022-11-26T01:32:56.261Z,102303.31
2022-11-26T01:35:23.378Z,102307.66
2022-11-26T01:37:50.079Z,102301.53
2022-11-26T01:40:31.336Z,102305.91
2022-11-26T01:43:12.125Z,102300.66
2022-11-26T01:45:38.833Z,102308.50
2022-11-26T01:48:23.811Z,102303.22
2022-11-26T01:50:53.278Z,102305.84
2022-11-26T01:53:29.006Z,102303.19
2022-11-26T01:56:02.633Z,102308.44
2022-11-26T01:58:40.493Z,102306.69
2022-11-26T02:01:07.396Z,102316.31
2022-11-26T02:03:50.272Z,102308.44
2022-11-26T02:06:20.927Z,102311.00
2022-11-26T02:08:47.765Z,102310.13
2022-11-26T02:11:21.585Z,102311.00
2022-11-26T02:13:51.917Z,102314.50
2022-11-26T02:16:31.605Z,102315.34
2022-11-26T02:19:20.870Z,102313.56
2022-11-26T02:21:56.317Z,102315.28
2022-11-26T02:24:40.895Z,102308.28
2022-11-26T02:27:30.881Z,102319.66
2022-11-26T02:30:06.306Z,102320.53
2022-11-26T02:33:02.600Z,102325.78
2022-11-26T02:35:45.973Z,102319.59
2022-11-26T02:38:19.466Z,102323.09
2022-11-26T02:40:46.229Z,102330.06
2022-11-26T02:43:15.941Z,102324.78
2022-11-26T02:45:55.908Z,102323.03
2022-11-26T02:48:27.253Z,102325.66
2022-11-26T02:51:04.578Z,102320.41
2022-11-26T02:53:33.706Z,102319.47
2022-11-26T02:56:07.374Z,102320.38
2022-11-26T02:58:34.920Z,102324.72
2022-11-26T03:01:07.329Z,102317.72
2022-11-26T03:03:39.188Z,102322.09
2022-11-26T03:06:09.614Z,102316.84
2022-11-26T03:08:36.884Z,102326.50
2022-11-26T03:11:04.077Z,102323.03
2022-11-26T03:13:30.906Z,102330.03
2022-11-26T03:15:57.697Z,102330.03
2022-11-26T03:18:24.474Z,102327.47
2022-11-26T03:20:52.487Z,102334.50
2022-11-26T03:23:19.307Z,102331.88
2022-11-26T03:25:45.991Z,102332.75
2022-11-26T03:28:12.584Z,102328.41
2022-11-26T03:30:39.151Z,102330.16
2022-11-26T03:33:05.709Z,102331.91
2022-11-26T03:35:32.293Z,102331.88
2022-11-26T03:37:58.850Z,102341.44
2022-11-26T03:40:25.529Z,102335.34
2022-11-26T03:42:52.099Z,102336.19
2022-11-26T03:45:18.937Z,102334.44
2022-11-26T03:47:45.470Z,102338.75
2022-11-26T03:50:12.384Z,102338.81
2022-11-26T03:52:38.961Z,102340.56
2022-11-26T03:55:05.960Z,102345.81
2022-11-26T03:57:32.541Z,102348.44
2022-11-26T03:59:59.111Z,102348.41
2022-11-26T04:02:25.677Z,102340.56
2022-11-26T04:04:52.325Z,102351.06
2022-11-26T04:07:19.007Z,102351.94
2022-11-26T04:09:45.582Z,102356.28
2022-11-26T04:12:12.125Z,102356.28
2022-11-26T04:14:38.998Z,102358.03
2022-11-26T04:17:05.755Z,102351.91
2022-11-26T04:19:32.316Z,102358.97
2022-11-26T04:21:58.876Z,102351.94
2022-11-26T04:24:25.472Z,102358.03
2022-11-26T04:26:52.116Z,102358.03
2022-11-26T04:29:18.709Z,102362.41
2022-11-26T04:31:45.542Z,102371.16
2022-11-26T04:34:12.199Z,102361.53
2022-11-26T04:36:39.574Z,102370.25
2022-11-26T04:39:06.243Z,102360.66
2022-11-26T04:41:32.802Z,102366.72
2022-11-26T04:43:59.375Z,102359.72
2022-11-26T04:46:25.938Z,102365.81
2022-11-26T04:48:52.487Z,102355.28
2022-11-26T04:51:19.144Z,102361.38
2022-11-26T04:53:45.686Z,102364.88
2022-11-26T04:56:12.284Z,102361.38
2022-11-26T04:58:38.832Z,102363.06
2022-11-26T05:01:05.750Z,102362.25
2022-11-26T05:03:32.389Z,102365.75
2022-11-26T05:05:59.004Z,102375.34
2022-11-26T05:08:25.557Z,102372.72
2022-11-26T05:10:56.193Z,102375.34
2022-11-26T05:13:22.833Z,102371.78
2022-11-26T05:15:49.599Z,102379.66
2022-11-26T05:18:16.426Z,102381.41
2022-11-26T05:20:42.996Z,102387.56
2022-11-26T05:23:09.902Z,102384.97
2022-11-26T05:25:36.754Z,102385.84
2022-11-26T05:28:03.529Z,102386.72
2022-11-26T05:30:30.250Z,102392.91
2022-11-26T05:32:56.809Z,102391.16
2022-11-26T05:35:23.462Z,102391.16
2022-11-26T05:37:50.027Z,102400.75
2022-11-26T05:40:16.730Z,102399.03
2022-11-26T05:42:43.555Z,102400.78
2022-11-26T05:45:10.446Z,102404.28
2022-11-26T05:47:37.036Z,102399.88
2022-11-26T05:50:04.299Z,102401.63
2022-11-26T05:52:30.981Z,102406.88
2022-11-26T05:54:57.546Z,102401.66
2022-11-26T05:57:24.084Z,102409.44
2022-11-26T05:59:50.789Z,102411.25
2022-11-26T06:02:17.578Z,102421.75
2022-11-26T06:04:44.599Z,102419.13
2022-11-26T06:07:11.209Z,102414.75
2022-11-26T06:09:38.051Z,102419.91
2022-11-26T06:12:05.226Z,102419.03
2022-11-26T06:14:31.848Z,102422.53
2022-11-26T06:16:58.472Z,102431.28
2022-11-26T06:19:25.239Z,102418.16
2022-11-26T06:21:51.768Z,102420.78
2022-11-26T06:24:18.305Z,102417.22
2022-11-26T06:26:44.877Z,102426.88
2022-11-26T06:29:11.515Z,102423.34
2022-11-26T06:31:38.099Z,102413.72
2022-11-26T06:34:04.710Z,102420.63
2022-11-26T06:36:31.282Z,102423.25
2022-11-26T06:39:00.750Z,102425.88
2022-11-26T06:41:27.369Z,102423.25
2022-11-26T06:43:53.949Z,102425.03
2022-11-26T06:46:20.697Z,102425.06
2022-11-26T06:48:47.314Z,102429.44
2022-11-26T06:51:15.973Z,102439.13
2022-11-26T06:53:42.629Z,102438.25
2022-11-26T06:56:18.447Z,102440.03
2022-11-26T06:58:46.948Z,102438.25
2022-11-26T07:01:20.829Z,102441.75
2022-11-26T07:03:47.748Z,102442.59
2022-11-26T07:06:22.653Z,102438.19
2022-11-26T07:08:50.007Z,102444.31
2022-11-26T07:11:17.159Z,102447.88
2022-11-26T07:13:43.948Z,102447.88
2022-11-26T07:16:11.188Z,102444.38
2022-11-26T07:18:38.113Z,102454.06
2022-11-26T07:21:13.993Z,102456.69
2022-11-26T07:23:41.261Z,102452.38
2022-11-26T07:26:09.867Z,102461.06
2022-11-26T07:28:37.057Z,102459.31
2022-11-26T07:31:16.515Z,102459.22
2022-11-26T07:33:44.858Z,102466.22
2022-11-26T07:36:17.361Z,102466.22
2022-11-26T07:38:44.278Z,102467.97
2022-11-26T07:41:13.511Z,102470.59
2022-11-26T07:43:41.898Z,102466.22
2022-11-26T07:46:10.892Z,102475.03
2022-11-26T07:48:39.899Z,102466.31
2022-11-26T07:51:08.306Z,102472.44
2022-11-26T07:53:36.011Z,102471.53
2022-11-26T07:56:06.393Z,102478.53
2022-11-26T07:58:33.222Z,102479.41
2022-11-26T08:01:10.760Z,102482.03
2022-11-26T08:03:41.924Z,102475.97
2022-11-26T08:06:10.681Z,102473.34
2022-11-26T08:08:37.348Z,102475.09
2022-11-26T08:11:05.717Z,102482.09
2022-11-26T08:13:32.273Z,102482.09
2022-11-26T08:15:58.870Z,102483.81
2022-11-26T08:18:25.528Z,102479.41
2022-11-26T08:20:56.294Z,102482.00
2022-11-26T08:23:24.181Z,102485.50
2022-11-26T08:26:20.615Z,102491.63
2022-11-26T08:28:38.361Z,102499.56
2022-11-26T08:31:08.087Z,102499.56
2022-11-26T08:33:35.049Z,102494.31
2022-11-26T08:36:08.994Z,102498.69
2022-11-26T08:38:36.327Z,102498.69
2022-11-26T08:41:05.224Z,102494.31
2022-11-26T08:43:58.701Z,102493.44
2022-11-26T08:46:18.628Z,102500.44
2022-11-26T08:48:45.445Z,102496.06
2022-11-26T08:51:12.961Z,102497.75
2022-11-26T08:53:39.821Z,102506.47
2022-11-26T08:56:12.313Z,102507.34
2022-11-26T08:58:41.708Z,102503.88
2022-11-26T09:01:10.684Z,102504.78
2022-11-26T09:03:37.927Z,102506.47
2022-11-26T09:06:06.028Z,102514.38
2022-11-26T09:08:34.736Z,102517.03
2022-11-26T09:11:01.289Z,102520.59
2022-11-26T09:13:29.907Z,102527.59
2022-11-26T09:15:56.507Z,102515.41
2022-11-26T09:18:23.036Z,102518.03
2022-11-26T09:20:52.906Z,102521.50
2022-11-26T09:23:23.485Z,102517.13
2022-11-26T09:25:50.688Z,102524.13
2022-11-26T09:28:17.265Z,102533.78
2022-11-26T09:30:43.802Z,102529.44
2022-11-26T09:33:10.348Z,102536.44
2022-11-26T09:35:36.933Z,102528.56
2022-11-26T09:38:03.494Z,102532.13
2022-11-26T09:40:45.732Z,102531.28
2022-11-26T09:43:37.861Z,102536.50
2022-11-26T09:46:05.611Z,102533.88
2022-11-26T09:48:34.078Z,102536.50
2022-11-26T09:51:07.950Z,102538.31
2022-11-26T09:53:40.234Z,102536.50
2022-11-26T09:56:13.260Z,102536.50
2022-11-26T09:58:48.367Z,102532.16
2022-11-26T10:01:20.510Z,102531.31
2022-11-26T10:03:47.629Z,102531.31
2022-11-26T10:06:30.693Z,102526.09
2022-11-26T10:09:03.260Z,102526.16
2022-11-26T10:11:41.952Z,102526.19
2022-11-26T10:14:45.739Z,102530.53
2022-11-26T10:17:30.864Z,102539.28
2022-11-26T10:20:32.815Z,102537.47
2022-11-26T10:23:33.454Z,102530.47
2022-11-26T10:26:23.555Z,102536.56
2022-11-26T10:28:59.625Z,102539.22
2022-11-26T10:31:31.642Z,102543.59
2022-11-26T10:34:02.204Z,102542.72
2022-11-26T10:36:41.581Z,102546.28
2022-11-26T10:39:13.671Z,102550.66
2022-11-26T10:41:40.291Z,102545.47
2022-11-26T10:44:37.483Z,102546.34
2022-11-26T10:47:24.003Z,102550.78
2022-11-26T10:49:52.552Z,102548.09
2022-11-26T10:52:24.730Z,102550.72
2022-11-26T10:55:27.600Z,102552.47
2022-11-26T10:58:07.702Z,102553.34
2022-11-26T11:00:38.909Z,102555.03
2022-11-26T11:03:38.207Z,102548.09
2022-11-26T11:06:21.437Z,102547.31
2022-11-26T11:08:52.501Z,102560.44
2022-11-26T11:11:25.467Z,102554.31
2022-11-26T11:13:52.915Z,102562.16
2022-11-26T11:16:27.469Z,102562.16
2022-11-26T11:18:59.533Z,102561.31
2022-11-26T11:21:33.787Z,102568.34
2022-11-26T11:24:23.984Z,102570.97
2022-11-26T11:26:55.877Z,102571.00
2022-11-26T11:29:28.143Z,102558.75
2022-11-26T11:31:56.487Z,102570.13
2022-11-26T11:34:29.621Z,102571.06
2022-11-26T11:37:05.021Z,102565.81
2022-11-26T11:39:35.615Z,102562.25
2022-11-26T11:42:07.217Z,102561.38
2022-11-26T11:44:54.661Z,102562.25
2022-11-26T11:47:44.365Z,102559.69
2022-11-26T11:50:58.950Z,102558.84
2022-11-26T11:54:01.905Z,102564.06
2022-11-26T11:56:41.677Z,102565.75
2022-11-26T11:59:47.542Z,102570.97
2022-11-26T12:02:27.146Z,102569.22
2022-11-26T12:05:06.374Z,102570.13
2022-11-26T12:07:39.664Z,102563.91
2022-11-26T12:10:13.548Z,102563.91
2022-11-26T12:12:50.750Z,102564.72
2022-11-26T12:16:03.852Z,102559.47
2022-11-26T12:18:51.522Z,102566.47
2022-11-26T12:21:29.163Z,102562.09
2022-11-26T12:24:07.098Z,102560.34
2022-11-26T12:26:49.432Z,102563.91
2022-11-26T12:29:31.919Z,102569.16
2022-11-26T12:32:05.260Z,102564.78
2022-11-26T12:34:36.003Z,102573.59
2022-11-26T12:37:07.016Z,102573.63
2022-11-26T12:39:36.624Z,102571.06
2022-11-26T12:42:14.703Z,102567.63
2022-11-26T12:44:44.122Z,102566.78
2022-11-26T12:47:37.093Z,102563.28
2022-11-26T12:50:22.918Z,102567.66
2022-11-26T12:53:01.381Z,102567.72
2022-11-26T12:55:40.059Z,102570.34
2022-11-26T12:58:09.648Z,102566.78
2022-11-26T13:00:36.697Z,102574.66
2022-11-26T13:03:06.572Z,102575.53
2022-11-26T13:05:52.004Z,102573.84
2022-11-26T13:08:21.335Z,102574.88
2022-11-26T13:11:12.725Z,102577.66
2022-11-26T13:14:14.445Z,102577.97
2022-11-26T13:17:05.765Z,102572.84
2022-11-26T13:19:44.958Z,102568.69
2022-11-26T13:22:53.804Z,102573.16
2022-11-26T13:25:40.749Z,102575.00
2022-11-26T13:28:35.770Z,102573.28
2022-11-26T13:31:40.020Z,102581.16
2022-11-26T13:34:24.939Z,102582.84
2022-11-26T13:37:00.849Z,102588.91
2022-11-26T13:39:59.841Z,102597.63
2022-11-26T13:42:43.782Z,102595.88
2022-11-26T13:45:34.509Z,102602.03
2022-11-26T13:48:36.486Z,102600.25
2022-11-26T13:51:26.361Z,102595.75
2022-11-26T13:54:05.505Z,102600.00
2022-11-26T13:56:34.398Z,102601.66
2022-11-26T13:59:28.005Z,102598.06
2022-11-26T14:01:55.451Z,102605.00
2022-11-26T14:04:24.771Z,102609.28
2022-11-26T14:07:06.517Z,102603.91
2022-11-26T14:09:44.904Z,102600.38
2022-11-26T14:12:15.822Z,102607.31
2022-11-26T14:14:43.853Z,102609.03
2022-11-26T14:17:12.570Z,102608.09
2022-11-26T14:19:45.008Z,102603.66
2022-11-26T14:22:11.505Z,102617.63
2022-11-26T14:24:59.982Z,102610.50
2022-11-26T14:27:31.012Z,102606.09
2022-11-26T14:30:03.386Z,102606.91
2022-11-26T14:32:36.184Z,102605.13
2022-11-26T14:35:02.977Z,102606.81
2022-11-26T14:37:31.069Z,102611.13
2022-11-26T14:40:19.716Z,102613.75
2022-11-26T14:42:46.270Z,102610.31
2022-11-26T14:45:18.349Z,102606.75
2022-11-26T14:47:49.750Z,102606.81
2022-11-26T14:50:19.925Z,102613.00
2022-11-26T14:52:46.813Z,102612.09
2022-11-26T14:55:24.002Z,102608.50
2022-11-26T14:57:56.340Z,102610.31
2022-11-26T15:00:29.361Z,102606.81
2022-11-26T15:02:56.397Z,102606.84
2022-11-26T15:05:25.506Z,102604.22
2022-11-26T15:08:15.994Z,102611.25
2022-11-26T15:10:59.502Z,102606.91
2022-11-26T15:13:30.736Z,102613.09
2022-11-26T15:15:59.922Z,102606.91
2022-11-26T15:18:32.585Z,102606.91
2022-11-26T15:21:01.537Z,102611.22
2022-11-26T15:23:32.169Z,102617.38
2022-11-26T15:26:00.214Z,102613.03
2022-11-26T15:28:27.412Z,102620.94
2022-11-26T15:30:53.995Z,102617.47
2022-11-26T15:33:21.480Z,102614.78
2022-11-26T15:35:56.584Z,102613.88
2022-11-26T15:38:28.759Z,102613.84
2022-11-26T15:40:58.357Z,102619.94
2022-11-26T15:43:33.276Z,102619.97
2022-11-26T15:46:11.424Z,102620.81
2022-11-26T15:48:58.534Z,102614.66
2022-11-26T15:51:35.539Z,102621.56
2022-11-26T15:54:06.097Z,102624.16
2022-11-26T15:56:37.248Z,102620.56
2022-11-26T15:59:13.783Z,102624.88
2022-11-26T16:01:44.602Z,102624.94
2022-11-26T16:04:39.025Z,102630.09
2022-11-26T16:07:14.336Z,102629.28
2022-11-26T16:09:41.916Z,102631.03
2022-11-26T16:12:32.777Z,102627.50
2022-11-26T16:15:19.885Z,102629.28
2022-11-26T16:17:47.877Z,102631.91
2022-11-26T16:20:26.769Z,102629.28
2022-11-26T16:22:56.909Z,102636.28
2022-11-26T16:25:24.736Z,102638.94
2022-11-26T16:28:09.595Z,102642.47
2022-11-26T16:30:37.097Z,102635.41
2022-11-26T16:33:05.067Z,102632.72
2022-11-26T16:35:47.859Z,102636.28
2022-11-26T16:38:22.842Z,102635.34
2022-11-26T16:40:50.366Z,102634.47
2022-11-26T16:43:17.530Z,102631.91
2022-11-26T16:45:44.595Z,102632.72
2022-11-26T16:48:24.614Z,102639.72
2022-11-26T16:50:53.276Z,102643.19
2022-11-26T16:53:19.828Z,102640.50
2022-11-26T16:55:46.985Z,102636.94
2022-11-26T16:58:29.456Z,102643.91
2022-11-26T17:00:56.871Z,102635.97
2022-11-26T17:03:25.105Z,102647.28
2022-11-26T17:05:55.230Z,102642.84
2022-11-26T17:08:22.598Z,102655.88
2022-11-26T17:10:50.894Z,102654.94
2022-11-26T17:13:17.919Z,102656.66
2022-11-26T17:15:44.997Z,102654.06
2022-11-26T17:18:24.555Z,102654.94
2022-11-26T17:20:52.715Z,102654.94
2022-11-26T17:23:19.381Z,102653.97
2022-11-26T17:25:50.630Z,102649.56
2022-11-26T17:28:17.377Z,102660.03
2022-11-26T17:30:45.073Z,102651.31
2022-11-26T17:33:11.994Z,102647.84
2022-11-26T17:35:38.828Z,102643.47
2022-11-26T17:38:14.656Z,102645.19
2022-11-26T17:40:41.424Z,102646.09
2022-11-26T17:43:07.992Z,102635.56
2022-11-26T17:45:34.522Z,102644.31
2022-11-26T17:48:01.144Z,102643.44
2022-11-26T17:50:29.324Z,102644.31
2022-11-26T17:52:56.091Z,102642.53
2022-11-26T17:55:25.260Z,102638.13
2022-11-26T17:57:52.015Z,102643.38
2022-11-26T18:00:22.183Z,102652.97
2022-11-26T18:02:49.224Z,102645.13
2022-11-26T18:05:16.054Z,102651.25
2022-11-26T18:07:42.654Z,102651.16
2022-11-26T18:10:14.950Z,102648.50
2022-11-26T18:12:42.562Z,102642.44
2022-11-26T18:15:16.295Z,102653.84
2022-11-26T18:17:48.253Z,102649.41
2022-11-26T18:20:16.084Z,102645.97
2022-11-26T18:22:42.680Z,102650.34
2022-11-26T18:25:09.515Z,102654.72
2022-11-26T18:27:36.307Z,102649.47
2022-11-26T18:30:03.843Z,102646.81
2022-11-26T18:32:30.438Z,102655.50
2022-11-26T18:34:57.031Z,102647.63
2022-11-26T18:37:23.594Z,102650.28
2022-11-26T18:39:50.182Z,102654.72
2022-11-26T18:45:03.633Z,102652.00
2022-11-26T18:47:30.177Z,102654.63
2022-11-26T18:49:56.704Z,102661.56
2022-11-26T18:52:23.241Z,102655.44
2022-11-26T18:54:49.792Z,102647.56
2022-11-26T18:57:16.341Z,102652.78
2022-11-26T18:59:43.183Z,102648.34
2022-11-26T19:02:10.750Z,102651.00
2022-11-26T19:04:38.357Z,102655.31
2022-11-26T19:07:05.004Z,102653.50
2022-11-26T19:09:31.595Z,102657.00
2022-11-26T19:11:58.406Z,102653.47
2022-11-26T19:14:25.266Z,102655.13
2022-11-26T19:16:52.110Z,102651.66
2022-11-26T19:19:19.351Z,102649.88
2022-11-26T19:21:46.069Z,102648.09
2022-11-26T19:24:12.917Z,102656.00
2022-11-26T19:26:41.560Z,102648.09
2022-11-26T19:29:09.402Z,102651.56
2022-11-26T19:31:38.955Z,102661.16
2022-11-26T19:34:10.027Z,102663.78
2022-11-26T19:36:37.431Z,102661.09
2022-11-26T19:39:05.548Z,102661.09
2022-11-26T19:41:32.174Z,102664.59
2022-11-26T19:44:00.676Z,102656.75
2022-11-26T19:46:28.152Z,102664.59
2022-11-26T19:48:55.827Z,102661.09
2022-11-26T19:51:23.974Z,102663.72
2022-11-26T19:53:52.293Z,102656.69
2022-11-26T19:56:22.304Z,102664.53
2022-11-26T19:58:49.579Z,102667.16
2022-11-26T20:01:17.697Z,102660.13
2022-11-26T20:03:44.670Z,102663.56
2022-11-26T20:06:23.358Z,102660.03
2022-11-26T20:08:50.418Z,102667.81
2022-11-26T20:11:18.352Z,102664.28
2022-11-26T20:13:46.663Z,102664.22
2022-11-26T20:16:18.077Z,102665.88
2022-11-26T20:18:45.514Z,102667.59
2022-11-26T20:21:16.001Z,102669.34
2022-11-26T20:23:43.161Z,102666.78
2022-11-26T20:26:21.734Z,102669.34
2022-11-26T20:28:49.490Z,102670.19
2022-11-26T20:31:21.904Z,102679.72
2022-11-26T20:33:49.857Z,102677.16
2022-11-26T20:36:18.317Z,102672.84
2022-11-26T20:38:44.897Z,102683.31
2022-11-26T20:41:16.071Z,102673.72
2022-11-26T20:43:43.004Z,102672.81
2022-11-26T20:46:11.101Z,102678.94
2022-11-26T20:48:39.479Z,102688.53
2022-11-26T20:51:08.337Z,102683.31
2022-11-26T20:53:36.464Z,102696.47
2022-11-26T20:56:03.495Z,102690.28
2022-11-26T20:58:30.908Z,102691.16
2022-11-26T21:00:57.840Z,102690.19
2022-11-26T21:03:26.475Z,102695.44
2022-11-26T21:05:53.753Z,102692.81
2022-11-26T21:08:22.166Z,102697.16
2022-11-26T21:10:50.578Z,102690.13
2022-11-26T21:13:19.109Z,102694.53
2022-11-26T21:15:49.523Z,102690.97
2022-11-26T21:18:16.334Z,102686.50
2022-11-26T21:20:44.095Z,102686.50
2022-11-26T21:23:12.456Z,102685.53
2022-11-26T21:25:43.376Z,102674.97
2022-11-26T21:28:11.443Z,102688.13
2022-11-26T21:30:40.981Z,102683.78
2022-11-26T21:33:09.601Z,102684.66
2022-11-26T21:35:41.661Z,102681.19
2022-11-26T21:38:08.341Z,102685.63
2022-11-26T21:40:37.610Z,102683.00
2022-11-26T21:43:04.180Z,102681.34
2022-11-26T21:45:30.789Z,102677.88
2022-11-26T21:47:57.396Z,102677.88
2022-11-26T21:50:24.063Z,102683.09
2022-11-26T21:52:50.705Z,102681.28
2022-11-26T21:55:17.357Z,102683.88
2022-11-26T21:57:43.909Z,102686.50
2022-11-26T22:00:10.976Z,102679.53
2022-11-26T22:02:37.825Z,102684.72
2022-11-26T22:05:07.158Z,102686.50
2022-11-26T22:07:34.820Z,102686.50
2022-11-26T22:10:01.570Z,102694.44
2022-11-26T22:12:28.216Z,102691.91
2022-11-26T22:14:54.894Z,102688.53
2022-11-26T22:17:21.474Z,102688.56
2022-11-26T22:19:50.306Z,102690.38
2022-11-26T22:22:16.899Z,102695.63
2022-11-26T22:24:43.603Z,102696.47
2022-11-26T22:27:10.741Z,102685.03
2022-11-26T22:29:37.930Z,102686.66
2022-11-26T22:32:04.876Z,102690.19
2022-11-26T22:34:31.610Z,102686.75
2022-11-26T22:36:58.357Z,102689.44
2022-11-26T22:39:27.832Z,102688.53
2022-11-26T22:41:54.397Z,102687.59
2022-11-26T22:44:20.982Z,102688.53
2022-11-26T22:46:47.809Z,102685.16
2022-11-26T22:49:22.813Z,102689.53
2022-11-26T22:51:49.543Z,102685.22
2022-11-26T22:54:20.066Z,102685.31
2022-11-26T22:56:49.811Z,102694.09
2022-11-26T22:59:19.187Z,102687.09
2022-11-26T23:01:45.861Z,102682.72
2022-11-26T23:04:12.563Z,102701.94
2022-11-26T23:06:44.728Z,102701.81
2022-11-26T23:09:14.840Z,102690.97
2022-11-26T23:11:43.049Z,102693.50
2022-11-26T23:14:13.824Z,102687.41
2022-11-26T23:16:45.176Z,102685.75
2022-11-26T23:19:15.566Z,102692.88
2022-11-26T23:21:44.626Z,102686.78
2022-11-26T23:24:11.508Z,102687.75
2022-11-26T23:26:40.277Z,102692.16
2022-11-26T23:29:10.133Z,102693.94
2022-11-26T23:31:42.689Z,102694.78
2022-11-26T23:34:10.269Z,102693.78
2022-11-26T23:36:37.786Z,102690.03
2022-11-26T23:39:06.777Z,102689.00
2022-11-26T23:41:34.004Z,102689.03
2022-11-26T23:44:00.636Z,102682.94
2022-11-26T23:46:31.029Z,102680.41
2022-11-26T23:48:58.350Z,102679.53
2022-11-26T23:51:29.884Z,102674.31
2022-11-26T23:53:59.629Z,102670.00
2022-11-26T23:56:31.751Z,102670.88
2022-11-26T23:59:04.349Z,102662.16
